Aviation Digital Data Service (ADDS)

Output produced by METARs form (1849 UTC 15 October 2018)
found at http://www.aviationweather.gov/metar/data/
 
TAF LECO 151400Z 1515/1615 15009KT 9999 SCT020 BKN035 TX21/1515Z TN08/1605Z 
     TEMPO 1515/1518 02010KT 
     PROB40 1600/1608 0800 FG BKN002 
     TEMPO 1612/1615 02010KT
       
TAF LEAB 151700Z 1518/1603 27010KT 9999 SCT045 
     BECMG 1518/1520 VRB05KT 
     PROB40 
     TEMPO 1518/1603 RA
       
TAF LERI 151400Z 1515/1524 VRB04KT 9999 FEW035
       
TAF LEAL 151700Z 1518/1618 VRB03KT 9999 FEW030 TX24/1612Z TN15/1606Z 
     BECMG 1518/1520 30008KT 
     PROB40 
     TEMPO 1608/1615 5000 SHRA SCT030TCU BKN040 
     PROB30 
     TEMPO 1609/1614 4000 TSRA SCT030CB 
     BECMG 1612/1614 05010KT
       
TAF LEAM 151400Z 1515/1615 23015KT 9999 SCT025 TX23/1613Z TN16/1606Z 
     BECMG 1518/1521 35007KT 
     PROB40 
     TEMPO 1522/1610 4000 RA BKN014
       
TAF LEGA 151400Z 1515/1524 VRB04KT 9999 SCT035 
     TEMPO 1518/1524 3000 RA BKN014
       
TAF LEAS 151400Z 1515/1615 18006KT 9999 FEW025 SCT050 TX19/1515Z TN10/1606Z 
     PROB40 
     TEMPO 1515/1520 07010KT 
     TEMPO 1612/1615 07010KT
       
TAF LEMD 151700Z 1518/1624 VRB05KT 9999 BKN025 TX21/1615Z TN08/1606Z 
     PROB40 
     TEMPO 1518/1602 4000 DZ BR BKN012 
     PROB30 
     TEMPO 1602/1607 4000 BR BKN012
       
TAF LEBL 151700Z 1518/1618 24008KT 9999 FEW025 TX22/1612Z TN16/1606Z 
     BECMG 1518/1520 34008KT 
     PROB30 
     TEMPO 1608/1618 SHRA SCT025TCU BKN030 
     BECMG 1609/1611 07010KT
       
TAF LEBB 151700Z 1518/1618 10008KT 9999 FEW050 TX22/1614Z TN11/1606Z 
     TEMPO 1612/1618 06008KT
       
TAF LEBG 151700Z 1518/1603 22010KT 9999 BKN025 
     BECMG 1518/1520 VRB05KT 
     PROB30 
     TEMPO 1600/1603 4000 BR
       
TAF LEBA 151700Z 1518/1603 07007KT 9999 SCT020 SCT030 
     TEMPO 1518/1520 3000 RA BKN014 
     PROB40 
     TEMPO 1523/1603 3000 BR BKN010
       
TAF LEVS 151700Z 1518/1603 VRB05KT 9999 BKN020 
     PROB40 
     TEMPO 1518/1603 3000 DZ BR BKN010
       
TAF GCFV 151400Z 1515/1615 04015KT 9999 FEW025 TX26/1614Z TN22/1605Z 
     TEMPO 1604/1609 34009KT
       
TAF LEGT 151700Z 1518/1603 VRB05KT 9999 BKN020 
     PROB40 
     TEMPO 1518/1603 3000 DZ BR BKN010
       
TAF LEGE 151700Z 1518/1618 33005KT 9999 BKN020 TX23/1613Z TN13/1606Z 
     TEMPO 1518/1612 FEW020TCU 
     PROB40 
     TEMPO 1518/1602 4000 SHRA FEW020TCU 
     TEMPO 1520/1607 2000 BR BKN008 
     BECMG 1608/1610 02008KT
       
TAF GCLP 151400Z 1515/1615 01020KT 9999 SCT025 TX25/1515Z TN21/1605Z
       
TAF LEGR 151400Z 1515/1615 VRB03KT 9999 FEW020 SCT035 TX20/1515Z TN09/1605Z 
     TEMPO 1518/1524 4000 RA BKN014
       
TAF GCHI 150800Z 1509/1609 02013KT 9999 SCT025 TX26/1515Z TN21/1605Z
       
TAF LEIB 151400Z 1515/1615 26012KT 9999 FEW030 TX22/1612Z TN16/1606Z 
     BECMG 1518/1520 30005KT 
     BECMG 1603/1605 01007KT 
     BECMG 1608/1610 08010KT 
     PROB40 
     TEMPO 1612/1615 4000 SHRA SCT025TCU BKN030
       
TAF LEJR 151700Z 1518/1618 21014KT 9999 SCT020 SCT030 TX24/1614Z TN10/1606Z 
     PROB40 
     TEMPO 1518/1520 20016G26KT 
     TEMPO 1518/1520 4000 RA BKN014 
     BECMG 1518/1520 31007KT 
     PROB40 
     TEMPO 1600/1608 3000 BR BKN006
       
TAF GCLA 151400Z 1515/1615 03009KT 9999 SCT025 TX26/1515Z TN21/1605Z
       
TAF GCRR 151400Z 1515/1615 02012KT 9999 FEW025 TX28/1614Z TN22/1605Z
       
TAF LELN 151700Z 1518/1603 VRB05KT 9999 BKN014 
     BECMG 1518/1520 SCT020 
     PROB40 
     TEMPO 1520/1603 4000 BR
       
TAF LEMG 151700Z 1518/1618 VRB04KT 9999 FEW035 TX25/1614Z TN16/1606Z 
     TEMPO 1518/1523 4000 RA BKN014 
     BECMG 1600/1603 29006KT
       
TAF GEML 151400Z 1515/1615 29014KT 9999 FEW020 SCT030 TX23/1614Z TN18/1605Z 
     PROB40 
     TEMPO 1515/1519 29015G25KT 
     BECMG 1518/1521 VRB03KT 
     PROB40 
     TEMPO 1600/1612 4000 RA BKN014 
     BECMG 1609/1612 28012KT
       
TAF LEMH 151400Z 1515/1615 22007KT 9999 SCT030 TX22/1612Z TN16/1606Z 
     TEMPO 1515/1517 23015KT 
     TEMPO 1601/1605 VRB03KT 
     TEMPO 1605/1608 16007KT
       
TAF LEMO 151700Z 1518/1603 19013KT 9999 SCT025 SCT035 
     TEMPO 1518/1521 4000 RA BKN014 
     PROB30 
     TEMPO 1518/1519 19015G25KT 
     BECMG 1519/1521 VRB03KT 
     PROB30 
     TEMPO 1600/1603 3000 BR
       
TAF LEPP 151400Z 1515/1615 VRB04KT 9999 SCT020 SCT050 TX21/1515Z TN09/1603Z 
     PROB40 
     TEMPO 1600/1607 0800 BCFG 
     TEMPO 1612/1615 35010KT
       
TAF LERS 151400Z 1515/1615 28007KT 9999 FEW030 TX22/1612Z TN14/1606Z 
     BECMG 1517/1519 VRB04KT 
     TEMPO 1519/1608 32007KT 
     PROB40 
     TEMPO 1612/1615 SHRA FEW030TCU BKN040
       
TAF LERT 151700Z 1518/1603 21016KT 9999 SCT020 BKN030 
     PROB40 
     TEMPO 1518/1520 21018G28KT 
     TEMPO 1518/1521 4000 RA BKN010 
     BECMG 1518/1520 30009KT
       
TAF LESA 151700Z 1518/1618 VRB05KT 9999 SCT030 TX20/1615Z TN04/1607Z 
     PROB40 
     TEMPO 1518/1524 3000 DZ BKN010 
     BECMG 1600/1602 3000 BR BKN006 
     PROB40 
     TEMPO 1602/1609 0500 FG VV001 
     BECMG 1609/1611 9999 NSW SCT020 
     PROB40 
     TEMPO 1612/1618 06010KT
       
TAF LESO 151700Z 1518/1618 04008KT 9999 SCT025 SCT040 TX19/1613Z TN13/1606Z
       
TAF LEXJ 151400Z 1515/1615 19007KT 9999 FEW045 TX20/1614Z TN11/1606Z 
     TEMPO 1515/1518 05010KT 
     TEMPO 1612/1615 05010KT
       
TAF LEST 151700Z 1518/1618 04006KT 8000 SCT010 BKN020 TX20/1614Z TN10/1606Z 
     PROB40 
     TEMPO 1600/1608 3000 BCFG 
     PROB30 
     TEMPO 1600/1608 0800 FG BKN002
       
TAF LESU 151400Z 1515/1615 VRB03KT 9999 BKN020 TX20/1613Z TN06/1606Z 
     TEMPO 1515/1517 22010KT SCT025TCU 
     PROB40 
     TEMPO 1518/1604 2000 BR BKN008 
     BECMG 1611/1613 22010KT
       
TAF AMD LEZL 151625Z 1516/1615 21010KT 9999 SCT015 BKN025 TX24/1614Z TN12/1606Z 
     PROB40 
     TEMPO 1516/1518 21015G25KT 
     TEMPO 1516/1519 4000 RA BKN008 
     BECMG 1518/1520 VRB03KT 
     PROB30 
     TEMPO 1522/1608 3000 BR BKN008
       
TAF LEBZ 151700Z 1518/1618 29005KT 9999 FEW015 SCT030 TX23/1615Z TN10/1606Z 
     PROB40 
     TEMPO 1600/1608 3000 BR BKN008 
     PROB30 
     TEMPO 1602/1608 0500 FG VV002
       
TAF GCXO 151400Z 1515/1615 35007KT 9999 BKN015 TX22/1515Z TN17/1605Z 
     PROB30 
     TEMPO 1519/1609 3000 BCFG BKN005
       
TAF GCTS 151400Z 1515/1615 08020KT 9999 FEW030 TX27/1515Z TN20/1605Z 
     PROB30 
     TEMPO 1515/1522 08020G30KT
       
TAF LETO 151700Z 1518/1618 VRB05KT 9999 BKN025 TX21/1615Z TN08/1606Z 
     PROB40 
     TEMPO 1518/1602 4000 DZ BR BKN012 
     PROB30 
     TEMPO 1602/1607 4000 BR BKN012
       
TAF LEVC 151700Z 1518/1618 28008KT 9999 FEW030 TX22/1612Z TN15/1606Z 
     PROB40 
     TEMPO 1608/1616 SHRA SCT025TCU BKN030 
     PROB30 
     TEMPO 1608/1614 4000 TSRA SCT025CB 
     BECMG 1608/1610 07010KT
       
TAF LEVD 151700Z 1518/1618 VRB05KT 9999 BKN020 TX18/1615Z TN04/1607Z 
     PROB40 
     TEMPO 1518/1524 4000 DZ BR BKN008 
     PROB40 
     TEMPO 1600/1609 2000 BR 
     PROB40 
     TEMPO 1604/1608 0500 FG VV001
       
TAF LEVX 151700Z 1518/1618 18008KT 6000 SCT008 BKN018 TX20/1612Z TN09/1606Z 
     PROB40 
     TEMPO 1518/1608 3000 BR BKN010
       
TAF LEVT 151700Z 1518/1618 VRB04KT 9999 SCT045 TX19/1614Z TN07/1606Z 
     PROB40 
     TEMPO 1602/1608 3000 BR 
     PROB30 
     TEMPO 1602/1608 0350 FG VV001 
     BECMG 1610/1614 03010KT
       
TAF LEZG 151700Z 1518/1618 VRB03KT 9999 FEW030 TX21/1614Z TN11/1606Z 
     BECMG 1518/1520 25009KT 
     BECMG 1606/1608 30008KT 
     BECMG 1612/1614 VRB04KT